sensor_id;sensor_type;location;lat;lon;timestamp;pressure;altitude;pressure_sealevel;temperature;humidity
11011;BME280;5558;42.702;23.178;2022-12-18T00:01:51;94422.72;;;6.42;100.00
11011;BME280;5558;42.702;23.178;2022-12-18T00:04:21;94418.56;;;6.34;100.00
11011;BME280;5558;42.702;23.178;2022-12-18T00:06:48;94423.88;;;6.28;100.00
11011;BME280;5558;42.702;23.178;2022-12-18T00:09:15;94428.56;;;6.26;100.00
11011;BME280;5558;42.702;23.178;2022-12-18T00:11:42;94429.13;;;6.09;100.00
11011;BME280;5558;42.702;23.178;2022-12-18T00:14:11;94431.53;;;6.11;100.00
11011;BME280;5558;42.702;23.178;2022-12-18T00:16:39;94429.56;;;6.06;100.00
11011;BME280;5558;42.702;23.178;2022-12-18T00:19:06;94440.22;;;5.93;100.00
11011;BME280;5558;42.702;23.178;2022-12-18T00:21:33;94433.94;;;5.94;100.00
11011;BME280;5558;42.702;23.178;2022-12-18T00:24:00;94439.13;;;5.76;100.00
11011;BME280;5558;42.702;23.178;2022-12-18T00:26:28;94436.97;;;5.67;100.00
11011;BME280;5558;42.702;23.178;2022-12-18T00:28:58;94441.00;;;5.69;100.00
11011;BME280;5558;42.702;23.178;2022-12-18T00:31:26;94448.81;;;5.76;100.00
11011;BME280;5558;42.702;23.178;2022-12-18T00:33:54;94445.31;;;5.88;100.00
11011;BME280;5558;42.702;23.178;2022-12-18T00:36:22;94474.06;;;5.83;100.00
11011;BME280;5558;42.702;23.178;2022-12-18T00:38:49;94455.19;;;5.62;100.00
11011;BME280;5558;42.702;23.178;2022-12-18T00:41:18;94460.13;;;5.52;100.00
11011;BME280;5558;42.702;23.178;2022-12-18T00:43:58;94460.94;;;5.52;100.00
11011;BME280;5558;42.702;23.178;2022-12-18T00:46:26;94460.53;;;5.49;100.00
11011;BME280;5558;42.702;23.178;2022-12-18T00:48:53;94464.19;;;5.48;100.00
11011;BME280;5558;42.702;23.178;2022-12-18T00:51:20;94468.63;;;5.47;100.00
11011;BME280;5558;42.702;23.178;2022-12-18T00:53:46;94460.00;;;5.40;100.00
11011;BME280;5558;42.702;23.178;2022-12-18T00:56:13;94469.03;;;5.51;100.00
11011;BME280;5558;42.702;23.178;2022-12-18T00:58:40;94471.91;;;5.67;100.00
11011;BME280;5558;42.702;23.178;2022-12-18T01:01:07;94472.88;;;5.73;100.00
11011;BME280;5558;42.702;23.178;2022-12-18T01:03:35;94469.97;;;5.81;100.00
11011;BME280;5558;42.702;23.178;2022-12-18T01:06:06;94471.25;;;5.72;100.00
11011;BME280;5558;42.702;23.178;2022-12-18T01:08:33;94472.88;;;5.73;100.00
11011;BME280;5558;42.702;23.178;2022-12-18T01:11:00;94479.97;;;5.72;100.00
11011;BME280;5558;42.702;23.178;2022-12-18T01:13:27;94483.94;;;5.81;100.00
11011;BME280;5558;42.702;23.178;2022-12-18T01:15:53;94472.84;;;6.04;100.00
11011;BME280;5558;42.702;23.178;2022-12-18T01:18:20;94484.88;;;5.62;100.00
11011;BME280;5558;42.702;23.178;2022-12-18T01:20:48;94481.06;;;5.58;100.00
11011;BME280;5558;42.702;23.178;2022-12-18T01:23:15;94489.47;;;5.42;100.00
11011;BME280;5558;42.702;23.178;2022-12-18T01:25:42;94496.31;;;5.43;100.00
11011;BME280;5558;42.702;23.178;2022-12-18T01:28:08;94489.50;;;5.67;100.00
11011;BME280;5558;42.702;23.178;2022-12-18T01:30:35;94484.28;;;5.60;100.00
11011;BME280;5558;42.702;23.178;2022-12-18T01:33:04;94488.72;;;5.35;100.00
11011;BME280;5558;42.702;23.178;2022-12-18T01:35:30;94429.41;;;4.96;100.00
11011;BME280;5558;42.702;23.178;2022-12-18T01:37:58;94494.16;;;5.65;100.00
11011;BME280;5558;42.702;23.178;2022-12-18T01:40:25;94489.91;;;5.64;100.00
11011;BME280;5558;42.702;23.178;2022-12-18T01:42:52;94491.72;;;5.70;100.00
11011;BME280;5558;42.702;23.178;2022-12-18T01:45:25;94499.53;;;5.76;100.00
11011;BME280;5558;42.702;23.178;2022-12-18T01:47:54;94500.81;;;5.67;100.00
11011;BME280;5558;42.702;23.178;2022-12-18T01:50:22;94502.06;;;5.89;100.00
11011;BME280;5558;42.702;23.178;2022-12-18T01:52:51;94466.25;;;5.95;100.00
11011;BME280;5558;42.702;23.178;2022-12-18T01:55:22;94505.63;;;6.19;100.00
11011;BME280;5558;42.702;23.178;2022-12-18T01:57:52;94506.22;;;6.22;100.00
11011;BME280;5558;42.702;23.178;2022-12-18T02:00:21;94497.81;;;6.13;100.00
11011;BME280;5558;42.702;23.178;2022-12-18T02:02:48;94506.44;;;6.02;100.00
11011;BME280;5558;42.702;23.178;2022-12-18T02:05:18;94498.13;;;6.23;100.00
11011;BME280;5558;42.702;23.178;2022-12-18T02:07:53;94506.69;;;6.18;100.00
11011;BME280;5558;42.702;23.178;2022-12-18T02:10:27;94501.03;;;6.15;100.00
11011;BME280;5558;42.702;23.178;2022-12-18T02:13:04;94512.84;;;6.06;100.00
11011;BME280;5558;42.702;23.178;2022-12-18T02:15:40;94515.00;;;5.91;100.00
11011;BME280;5558;42.702;23.178;2022-12-18T02:18:12;94513.25;;;5.85;100.00
11011;BME280;5558;42.702;23.178;2022-12-18T02:20:45;94505.09;;;5.31;100.00
11011;BME280;5558;42.702;23.178;2022-12-18T02:23:27;94524.66;;;4.90;100.00
11011;BME280;5558;42.702;23.178;2022-12-18T02:26:10;94522.03;;;4.90;100.00
11011;BME280;5558;42.702;23.178;2022-12-18T02:28:42;94531.31;;;4.93;100.00
11011;BME280;5558;42.702;23.178;2022-12-18T02:31:14;94530.28;;;4.94;100.00
11011;BME280;5558;42.702;23.178;2022-12-18T02:33:44;94535.94;;;4.97;100.00
11011;BME280;5558;42.702;23.178;2022-12-18T02:36:13;94537.03;;;5.21;100.00
11011;BME280;5558;42.702;23.178;2022-12-18T02:38:43;94538.09;;;5.14;100.00
11011;BME280;5558;42.702;23.178;2022-12-18T02:41:13;94535.59;;;5.25;100.00
11011;BME280;5558;42.702;23.178;2022-12-18T02:43:42;94542.63;;;5.31;100.00
11011;BME280;5558;42.702;23.178;2022-12-18T02:46:31;94538.13;;;5.07;100.00
11011;BME280;5558;42.702;23.178;2022-12-18T02:49:05;94543.41;;;5.01;100.00
11011;BME280;5558;42.702;23.178;2022-12-18T02:51:39;94541.47;;;5.27;100.00
11011;BME280;5558;42.702;23.178;2022-12-18T02:54:10;94546.91;;;5.26;100.00
11011;BME280;5558;42.702;23.178;2022-12-18T02:56:45;94545.13;;;5.20;100.00
11011;BME280;5558;42.702;23.178;2022-12-18T02:59:17;94552.56;;;5.23;100.00
11011;BME280;5558;42.702;23.178;2022-12-18T03:01:51;94559.22;;;5.25;100.00
11011;BME280;5558;42.702;23.178;2022-12-18T03:04:23;94547.13;;;5.24;100.00
11011;BME280;5558;42.702;23.178;2022-12-18T03:06:55;94519.06;;;4.80;100.00
11011;BME280;5558;42.702;23.178;2022-12-18T03:09:30;94559.50;;;5.11;100.00
11011;BME280;5558;42.702;23.178;2022-12-18T03:12:03;94557.28;;;5.14;100.00
11011;BME280;5558;42.702;23.178;2022-12-18T03:14:50;94568.47;;;5.28;100.00
11011;BME280;5558;42.702;23.178;2022-12-18T03:17:20;94563.44;;;5.26;100.00
11011;BME280;5558;42.702;23.178;2022-12-18T03:19:49;94563.16;;;5.03;100.00
11011;BME280;5558;42.702;23.178;2022-12-18T03:22:18;94565.00;;;4.96;100.00
11011;BME280;5558;42.702;23.178;2022-12-18T03:24:46;94574.44;;;5.10;100.00
11011;BME280;5558;42.702;23.178;2022-12-18T03:27:18;94574.09;;;4.93;100.00
11011;BME280;5558;42.702;23.178;2022-12-18T03:29:48;94568.31;;;4.78;100.00
11011;BME280;5558;42.702;23.178;2022-12-18T03:32:23;94585.84;;;4.78;100.00
11011;BME280;5558;42.702;23.178;2022-12-18T03:34:53;94588.69;;;4.76;100.00
11011;BME280;5558;42.702;23.178;2022-12-18T03:37:21;94593.47;;;4.86;100.00
11011;BME280;5558;42.702;23.178;2022-12-18T03:39:48;94595.13;;;4.74;100.00
11011;BME280;5558;42.702;23.178;2022-12-18T03:42:22;94588.50;;;4.71;100.00
11011;BME280;5558;42.702;23.178;2022-12-18T03:45:00;94596.16;;;4.73;100.00
11011;BME280;5558;42.702;23.178;2022-12-18T03:47:31;94597.81;;;4.54;100.00
11011;BME280;5558;42.702;23.178;2022-12-18T03:50:07;94604.66;;;4.42;100.00
11011;BME280;5558;42.702;23.178;2022-12-18T03:52:41;94617.34;;;4.45;100.00
11011;BME280;5558;42.702;23.178;2022-12-18T03:55:11;94616.97;;;4.22;100.00
11011;BME280;5558;42.702;23.178;2022-12-18T03:57:41;94621.00;;;4.31;100.00
11011;BME280;5558;42.702;23.178;2022-12-18T04:00:11;94609.31;;;4.21;100.00
11011;BME280;5558;42.702;23.178;2022-12-18T04:02:42;94608.91;;;3.91;100.00
11011;BME280;5558;42.702;23.178;2022-12-18T04:05:11;94614.94;;;4.05;100.00
11011;BME280;5558;42.702;23.178;2022-12-18T04:07:39;94602.47;;;3.94;100.00
11011;BME280;5558;42.702;23.178;2022-12-18T04:10:07;94604.69;;;4.10;100.00
11011;BME280;5558;42.702;23.178;2022-12-18T04:12:37;94613.56;;;4.09;100.00
11011;BME280;5558;42.702;23.178;2022-12-18T04:15:06;94609.31;;;3.88;100.00
11011;BME280;5558;42.702;23.178;2022-12-18T04:17:33;94619.56;;;4.03;100.00
11011;BME280;5558;42.702;23.178;2022-12-18T04:20:00;94621.19;;;4.23;100.00
11011;BME280;5558;42.702;23.178;2022-12-18T04:22:26;94622.84;;;4.24;100.00
11011;BME280;5558;42.702;23.178;2022-12-18T04:24:53;94630.88;;;4.16;100.00
11011;BME280;5558;42.702;23.178;2022-12-18T04:27:20;94644.78;;;4.04;100.00
11011;BME280;5558;42.702;23.178;2022-12-18T04:29:47;94646.19;;;4.39;100.00
11011;BME280;5558;42.702;23.178;2022-12-18T04:32:15;94648.81;;;4.32;100.00
11011;BME280;5558;42.702;23.178;2022-12-18T04:34:42;94651.44;;;4.26;100.00
11011;BME280;5558;42.702;23.178;2022-12-18T04:37:08;94656.88;;;4.31;100.00
11011;BME280;5558;42.702;23.178;2022-12-18T04:39:35;94667.16;;;4.45;100.00
11011;BME280;5558;42.702;23.178;2022-12-18T04:42:02;94664.53;;;4.32;100.00
11011;BME280;5558;42.702;23.178;2022-12-18T04:44:29;94663.34;;;4.54;100.00
11011;BME280;5558;42.702;23.178;2022-12-18T04:46:55;94663.53;;;4.59;100.00
11011;BME280;5558;42.702;23.178;2022-12-18T04:49:23;94672.56;;;4.89;100.00
11011;BME280;5558;42.702;23.178;2022-12-18T04:51:50;94678.81;;;4.75;100.00
11011;BME280;5558;42.702;23.178;2022-12-18T04:54:19;94679.28;;;4.46;100.00
11011;BME280;5558;42.702;23.178;2022-12-18T04:56:46;94684.47;;;4.72;100.00
11011;BME280;5558;42.702;23.178;2022-12-18T04:59:12;94681.06;;;4.59;100.00
11011;BME280;5558;42.702;23.178;2022-12-18T05:01:39;94686.72;;;4.62;100.00
11011;BME280;5558;42.702;23.178;2022-12-18T05:04:06;94681.47;;;4.69;100.00
11011;BME280;5558;42.702;23.178;2022-12-18T05:06:34;94687.91;;;4.73;100.00
11011;BME280;5558;42.702;23.178;2022-12-18T05:09:00;94689.69;;;4.85;100.00
11011;BME280;5558;42.702;23.178;2022-12-18T05:11:27;94692.53;;;4.84;100.00
11011;BME280;5558;42.702;23.178;2022-12-18T05:13:54;94679.03;;;4.80;100.00
11011;BME280;5558;42.702;23.178;2022-12-18T05:16:21;94696.38;;;4.49;100.00
11011;BME280;5558;42.702;23.178;2022-12-18T05:18:47;94708.28;;;4.45;100.00
11011;BME280;5558;42.702;23.178;2022-12-18T05:21:14;94707.84;;;4.15;100.00
11011;BME280;5558;42.702;23.178;2022-12-18T05:23:42;94709.03;;;4.13;100.00
11011;BME280;5558;42.702;23.178;2022-12-18T05:26:17;94723.38;;;4.23;100.00
11011;BME280;5558;42.702;23.178;2022-12-18T05:28:44;94722.34;;;4.11;100.00
11011;BME280;5558;42.702;23.178;2022-12-18T05:31:11;94727.56;;;3.98;100.00
11011;BME280;5558;42.702;23.178;2022-12-18T05:33:38;94721.34;;;4.12;100.00
11011;BME280;5558;42.702;23.178;2022-12-18T05:36:06;94723.59;;;4.28;100.00
11011;BME280;5558;42.702;23.178;2022-12-18T05:38:35;94735.91;;;4.47;100.00
11011;BME280;5558;42.702;23.178;2022-12-18T05:41:04;94744.09;;;4.05;100.00
11011;BME280;5558;42.702;23.178;2022-12-18T05:43:30;94743.81;;;3.81;100.00
11011;BME280;5558;42.702;23.178;2022-12-18T05:45:57;94748.25;;;3.80;100.00
11011;BME280;5558;42.702;23.178;2022-12-18T05:48:24;94748.09;;;3.95;100.00
11011;BME280;5558;42.702;23.178;2022-12-18T05:50:51;94747.69;;;3.91;100.00
11011;BME280;5558;42.702;23.178;2022-12-18T05:53:19;94750.94;;;4.06;100.00
11011;BME280;5558;42.702;23.178;2022-12-18T05:55:46;94739.50;;;4.20;100.00
11011;BME280;5558;42.702;23.178;2022-12-18T05:58:15;94766.34;;;4.48;100.00
11011;BME280;5558;42.702;23.178;2022-12-18T06:00:43;94766.34;;;4.48;100.00
11011;BME280;5558;42.702;23.178;2022-12-18T06:03:12;94765.78;;;4.59;100.00
11011;BME280;5558;42.702;23.178;2022-12-18T06:05:40;94773.81;;;4.45;100.00
11011;BME280;5558;42.702;23.178;2022-12-18T06:08:07;94767.16;;;4.42;100.00
11011;BME280;5558;42.702;23.178;2022-12-18T06:10:34;94771.78;;;4.40;100.00
11011;BME280;5558;42.702;23.178;2022-12-18T06:13:01;94766.31;;;4.16;100.00
11011;BME280;5558;42.702;23.178;2022-12-18T06:15:29;94771.34;;;4.24;100.00
11011;BME280;5558;42.702;23.178;2022-12-18T06:17:56;94775.94;;;4.02;100.00
11011;BME280;5558;42.702;23.178;2022-12-18T06:20:22;94783.63;;;4.17;100.00
11011;BME280;5558;42.702;23.178;2022-12-18T06:22:49;94782.34;;;3.93;100.00
11011;BME280;5558;42.702;23.178;2022-12-18T06:25:16;94782.16;;;4.01;100.00
11011;BME280;5558;42.702;23.178;2022-12-18T06:27:43;94790.44;;;4.05;100.00
11011;BME280;5558;42.702;23.178;2022-12-18T06:30:10;94782.81;;;4.16;100.00
11011;BME280;5558;42.702;23.178;2022-12-18T06:32:39;94786.34;;;3.89;100.00
11011;BME280;5558;42.702;23.178;2022-12-18T06:35:06;94797.63;;;3.83;100.00
11011;BME280;5558;42.702;23.178;2022-12-18T06:37:33;94790.41;;;3.92;100.00
11011;BME280;5558;42.702;23.178;2022-12-18T06:40:00;94795.25;;;3.95;100.00
11011;BME280;5558;42.702;23.178;2022-12-18T06:42:28;94809.53;;;3.92;100.00
11011;BME280;5558;42.702;23.178;2022-12-18T06:44:55;94809.78;;;4.04;100.00
11011;BME280;5558;42.702;23.178;2022-12-18T06:47:22;94798.09;;;4.06;100.00
11011;BME280;5558;42.702;23.178;2022-12-18T06:49:50;94814.50;;;4.28;100.00
11011;BME280;5558;42.702;23.178;2022-12-18T06:52:17;94820.00;;;4.46;100.00
11011;BME280;5558;42.702;23.178;2022-12-18T06:54:44;94819.59;;;4.49;100.00
11011;BME280;5558;42.702;23.178;2022-12-18T06:57:10;94824.47;;;4.71;100.00
11011;BME280;5558;42.702;23.178;2022-12-18T06:59:37;94817.03;;;4.68;100.00
11011;BME280;5558;42.702;23.178;2022-12-18T07:02:04;94818.00;;;4.61;100.00
11011;BME280;5558;42.702;23.178;2022-12-18T07:04:31;94828.91;;;4.84;100.00
11011;BME280;5558;42.702;23.178;2022-12-18T07:06:59;94820.06;;;4.91;100.00
11011;BME280;5558;42.702;23.178;2022-12-18T07:09:26;94816.81;;;5.09;100.00
11011;BME280;5558;42.702;23.178;2022-12-18T07:11:52;94829.94;;;5.22;100.00
11011;BME280;5558;42.702;23.178;2022-12-18T07:14:19;94836.59;;;5.38;100.00
11011;BME280;5558;42.702;23.178;2022-12-18T07:16:47;94833.13;;;5.50;100.00
11011;BME280;5558;42.702;23.178;2022-12-18T07:19:13;94837.19;;;5.59;100.00
11011;BME280;5558;42.702;23.178;2022-12-18T07:21:40;94832.16;;;5.32;100.00
11011;BME280;5558;42.702;23.178;2022-12-18T07:24:08;94834.38;;;5.22;100.00
11011;BME280;5558;42.702;23.178;2022-12-18T07:26:35;94833.16;;;5.37;100.00
11011;BME280;5558;42.702;23.178;2022-12-18T07:29:02;94835.75;;;5.57;100.00
11011;BME280;5558;42.702;23.178;2022-12-18T07:31:29;94844.47;;;5.51;100.00
11011;BME280;5558;42.702;23.178;2022-12-18T07:33:55;94844.06;;;5.47;100.00
11011;BME280;5558;42.702;23.178;2022-12-18T07:36:22;94846.69;;;4.95;100.00
11011;BME280;5558;42.702;23.178;2022-12-18T07:38:50;94846.44;;;4.64;100.00
11011;BME280;5558;42.702;23.178;2022-12-18T07:41:19;94849.78;;;4.38;100.00
11011;BME280;5558;42.702;23.178;2022-12-18T07:43:46;94852.38;;;4.25;100.00
11011;BME280;5558;42.702;23.178;2022-12-18T07:46:14;94851.66;;;3.97;100.00
11011;BME280;5558;42.702;23.178;2022-12-18T07:48:41;94856.34;;;4.08;100.00
11011;BME280;5558;42.702;23.178;2022-12-18T07:51:08;94854.50;;;3.96;100.00
11011;BME280;5558;42.702;23.178;2022-12-18T07:53:36;94846.81;;;3.94;100.00
11011;BME280;5558;42.702;23.178;2022-12-18T07:56:04;94860.88;;;3.87;100.00
11011;BME280;5558;42.702;23.178;2022-12-18T07:58:33;94859.22;;;3.79;100.00
11011;BME280;5558;42.702;23.178;2022-12-18T08:01:04;94873.47;;;3.70;100.00
11011;BME280;5558;42.702;23.178;2022-12-18T08:03:31;94864.44;;;3.79;100.00
11011;BME280;5558;42.702;23.178;2022-12-18T08:05:59;94890.78;;;3.71;100.00
11011;BME280;5558;42.702;23.178;2022-12-18T08:08:26;94886.94;;;3.67;100.00
11011;BME280;5558;42.702;23.178;2022-12-18T08:10:53;94893.19;;;3.66;100.00
11011;BME280;5558;42.702;23.178;2022-12-18T08:13:20;94892.50;;;3.85;100.00
11011;BME280;5558;42.702;23.178;2022-12-18T08:15:55;94891.81;;;3.70;100.00
11011;BME280;5558;42.702;23.178;2022-12-18T08:18:22;94876.16;;;3.49;100.00
11011;BME280;5558;42.702;23.178;2022-12-18T08:20:48;94913.66;;;3.56;100.00
11011;BME280;5558;42.702;23.178;2022-12-18T08:23:15;94904.97;;;3.55;100.00
11011;BME280;5558;42.702;23.178;2022-12-18T08:25:42;94909.19;;;3.84;100.00
11011;BME280;5558;42.702;23.178;2022-12-18T08:28:09;94906.25;;;3.94;100.00
11011;BME280;5558;42.702;23.178;2022-12-18T08:30:36;94904.56;;;3.86;100.00
11011;BME280;5558;42.702;23.178;2022-12-18T08:33:04;94907.72;;;3.68;100.00
11011;BME280;5558;42.702;23.178;2022-12-18T08:35:34;94909.84;;;3.93;100.00
11011;BME280;5558;42.702;23.178;2022-12-18T08:38:01;94918.69;;;3.85;100.00
11011;BME280;5558;42.702;23.178;2022-12-18T08:40:28;94917.50;;;3.60;100.00
11011;BME280;5558;42.702;23.178;2022-12-18T08:42:54;94915.25;;;3.57;100.00
11011;BME280;5558;42.702;23.178;2022-12-18T08:45:39;94918.84;;;3.49;100.00
11011;BME280;5558;42.702;23.178;2022-12-18T08:48:07;94928.19;;;3.58;100.00
11011;BME280;5558;42.702;23.178;2022-12-18T08:50:33;94928.72;;;3.26;100.00
11011;BME280;5558;42.702;23.178;2022-12-18T08:53:00;94922.25;;;3.22;100.00
11011;BME280;5558;42.702;23.178;2022-12-18T08:55:27;94919.09;;;3.33;100.00
11011;BME280;5558;42.702;23.178;2022-12-18T08:57:54;94926.78;;;3.62;100.00
11011;BME280;5558;42.702;23.178;2022-12-18T09:00:20;94919.66;;;3.50;100.00
11011;BME280;5558;42.702;23.178;2022-12-18T09:02:47;94911.81;;;3.50;100.00
11011;BME280;5558;42.702;23.178;2022-12-18T09:05:15;94910.41;;;3.54;100.00
11011;BME280;5558;42.702;23.178;2022-12-18T09:07:42;94915.59;;;3.75;100.00
11011;BME280;5558;42.702;23.178;2022-12-18T09:10:09;94924.59;;;3.66;100.00
11011;BME280;5558;42.702;23.178;2022-12-18T09:12:35;94913.38;;;3.72;100.00
11011;BME280;5558;42.702;23.178;2022-12-18T09:15:02;94919.13;;;3.89;100.00
11011;BME280;5558;42.702;23.178;2022-12-18T09:17:29;94925.19;;;3.96;100.00
11011;BME280;5558;42.702;23.178;2022-12-18T09:19:56;94921.06;;;4.14;100.00
11011;BME280;5558;42.702;23.178;2022-12-18T09:22:24;94914.88;;;4.28;100.00
11011;BME280;5558;42.702;23.178;2022-12-18T09:24:51;94914.84;;;4.22;100.00
11011;BME280;5558;42.702;23.178;2022-12-18T09:27:17;94912.19;;;4.15;100.00
11011;BME280;5558;42.702;23.178;2022-12-18T09:29:44;94922.75;;;3.94;100.00
11011;BME280;5558;42.702;23.178;2022-12-18T09:32:11;94920.28;;;3.86;100.00
11011;BME280;5558;42.702;23.178;2022-12-18T09:34:37;94912.59;;;3.78;100.00
11011;BME280;5558;42.702;23.178;2022-12-18T09:37:05;94923.16;;;3.98;100.00
11011;BME280;5558;42.702;23.178;2022-12-18T09:39:35;94927.44;;;3.99;100.00
11011;BME280;5558;42.702;23.178;2022-12-18T09:42:01;94922.91;;;4.20;100.00
11011;BME280;5558;42.702;23.178;2022-12-18T09:44:31;94920.53;;;3.91;100.00
11011;BME280;5558;42.702;23.178;2022-12-18T09:47:09;94912.84;;;3.90;100.00
11011;BME280;5558;42.702;23.178;2022-12-18T09:49:40;94930.00;;;3.92;100.00
11011;BME280;5558;42.702;23.178;2022-12-18T09:52:11;94930.28;;;3.76;100.00
11011;BME280;5558;42.702;23.178;2022-12-18T09:54:41;94925.44;;;3.73;100.00
11011;BME280;5558;42.702;23.178;2022-12-18T09:57:13;94917.75;;;3.65;100.00
11011;BME280;5558;42.702;23.178;2022-12-18T09:59:42;94925.31;;;3.53;100.00
11011;BME280;5558;42.702;23.178;2022-12-18T10:02:18;94914.66;;;3.55;100.00
11011;BME280;5558;42.702;23.178;2022-12-18T10:04:54;94907.78;;;3.54;100.00
11011;BME280;5558;42.702;23.178;2022-12-18T10:07:29;94925.78;;;3.63;100.00
11011;BME280;5558;42.702;23.178;2022-12-18T10:10:04;94916.13;;;3.64;100.00
11011;BME280;5558;42.702;23.178;2022-12-18T10:12:41;94921.66;;;3.48;100.00
11011;BME280;5558;42.702;23.178;2022-12-18T10:15:19;94913.72;;;3.69;100.00
11011;BME280;5558;42.702;23.178;2022-12-18T10:17:54;94910.13;;;3.70;100.00
11011;BME280;5558;42.702;23.178;2022-12-18T10:20:28;94920.88;;;3.82;100.00
11011;BME280;5558;42.702;23.178;2022-12-18T10:22:59;94923.50;;;3.82;100.00
11011;BME280;5558;42.702;23.178;2022-12-18T10:36:15;94927.31;;;4.20;100.00
11011;BME280;5558;42.702;23.178;2022-12-18T10:38:42;94921.16;;;4.40;100.00
11011;BME280;5558;42.702;23.178;2022-12-18T10:41:24;94920.13;;;4.35;100.00
11011;BME280;5558;42.702;23.178;2022-12-18T10:44:11;94926.66;;;4.11;100.00
11011;BME280;5558;42.702;23.178;2022-12-18T10:46:38;94923.59;;;4.42;100.00
11011;BME280;5558;42.702;23.178;2022-12-18T10:49:05;94925.31;;;4.22;100.00
11011;BME280;5558;42.702;23.178;2022-12-18T10:51:45;94923.50;;;4.16;100.00
11011;BME280;5558;42.702;23.178;2022-12-18T10:54:14;94925.19;;;3.96;100.00
11011;BME280;5558;42.702;23.178;2022-12-18T10:56:42;94895.03;;;3.72;100.00
11011;BME280;5558;42.702;23.178;2022-12-18T10:59:13;94927.44;;;3.71;100.00
11011;BME280;5558;42.702;23.178;2022-12-18T11:01:51;94926.50;;;3.51;100.00
11011;BME280;5558;42.702;23.178;2022-12-18T11:04:21;94925.25;;;3.47;100.00
11011;BME280;5558;42.702;23.178;2022-12-18T11:06:58;94925.69;;;3.50;100.00
11011;BME280;5558;42.702;23.178;2022-12-18T11:09:26;94928.25;;;3.71;100.00
11011;BME280;5558;42.702;23.178;2022-12-18T11:11:55;94926.06;;;3.75;100.00
11011;BME280;5558;42.702;23.178;2022-12-18T11:14:24;94920.31;;;3.93;100.00
11011;BME280;5558;42.702;23.178;2022-12-18T11:16:52;94923.38;;;3.96;100.00
11011;BME280;5558;42.702;23.178;2022-12-18T11:19:25;94922.69;;;4.15;100.00
11011;BME280;5558;42.702;23.178;2022-12-18T11:21:52;94891.53;;;3.58;100.00
11011;BME280;5558;42.702;23.178;2022-12-18T11:24:24;94932.00;;;3.90;100.00
11011;BME280;5558;42.702;23.178;2022-12-18T11:26:53;94930.72;;;4.14;100.00
11011;BME280;5558;42.702;23.178;2022-12-18T11:29:24;94931.44;;;4.35;100.00
11011;BME280;5558;42.702;23.178;2022-12-18T11:32:20;94932.69;;;4.05;99.70
11011;BME280;5558;42.702;23.178;2022-12-18T11:34:52;94929.75;;;4.21;100.00
11011;BME280;5558;42.702;23.178;2022-12-18T11:37:22;94928.09;;;4.14;99.76
11011;BME280;5558;42.702;23.178;2022-12-18T11:39:54;94927.88;;;4.09;96.25
11011;BME280;5558;42.702;23.178;2022-12-18T11:42:27;94937.94;;;4.05;96.06
11011;BME280;5558;42.702;23.178;2022-12-18T11:45:00;94923.69;;;4.14;96.38
11011;BME280;5558;42.702;23.178;2022-12-18T11:47:33;94919.25;;;4.21;95.19
11011;BME280;5558;42.702;23.178;2022-12-18T11:50:12;94906.72;;;4.10;94.63
11011;BME280;5558;42.702;23.178;2022-12-18T11:52:40;94902.44;;;4.03;95.68
11011;BME280;5558;42.702;23.178;2022-12-18T11:55:12;94933.78;;;4.17;94.99
11011;BME280;5558;42.702;23.178;2022-12-18T11:57:50;94898.13;;;4.23;95.63
11011;BME280;5558;42.702;23.178;2022-12-18T12:00:20;94917.00;;;4.59;94.25
11011;BME280;5558;42.702;23.178;2022-12-18T12:03:08;94913.13;;;4.42;92.92
11011;BME280;5558;42.702;23.178;2022-12-18T12:05:48;94916.16;;;4.45;93.76
11011;BME280;5558;42.702;23.178;2022-12-18T12:08:22;94917.63;;;4.67;93.35
11011;BME280;5558;42.702;23.178;2022-12-18T12:11:02;94918.78;;;4.52;93.08
11011;BME280;5558;42.702;23.178;2022-12-18T12:13:41;94914.41;;;4.72;94.96
11011;BME280;5558;42.702;23.178;2022-12-18T12:16:17;94915.25;;;4.85;93.10
11011;BME280;5558;42.702;23.178;2022-12-18T12:18:56;94928.97;;;4.81;91.92
11011;BME280;5558;42.702;23.178;2022-12-18T12:21:34;94892.47;;;4.79;93.98
11011;BME280;5558;42.702;23.178;2022-12-18T12:24:12;94929.00;;;4.87;89.83
11011;BME280;5558;42.702;23.178;2022-12-18T12:26:56;94923.72;;;4.81;90.34
11011;BME280;5558;42.702;23.178;2022-12-18T12:29:36;94922.91;;;4.80;92.18
11011;BME280;5558;42.702;23.178;2022-12-18T12:32:16;94925.09;;;4.70;92.48
11011;BME280;5558;42.702;23.178;2022-12-18T12:34:54;94923.09;;;4.66;91.79
11011;BME280;5558;42.702;23.178;2022-12-18T12:37:33;94919.22;;;4.55;91.45
11011;BME280;5558;42.702;23.178;2022-12-18T12:40:04;94923.91;;;4.66;91.71
11011;BME280;5558;42.702;23.178;2022-12-18T12:42:36;94918.66;;;4.66;90.45
11011;BME280;5558;42.702;23.178;2022-12-18T12:45:28;94917.13;;;5.05;91.45
11011;BME280;5558;42.702;23.178;2022-12-18T12:48:01;94926.78;;;4.91;90.59
11011;BME280;5558;42.702;23.178;2022-12-18T12:50:30;94936.78;;;4.61;91.70
11011;BME280;5558;42.702;23.178;2022-12-18T12:53:01;94939.03;;;4.71;90.94
11011;BME280;5558;42.702;23.178;2022-12-18T12:55:32;94928.75;;;4.76;91.57
11011;BME280;5558;42.702;23.178;2022-12-18T12:58:06;94935.16;;;4.60;90.69
11011;BME280;5558;42.702;23.178;2022-12-18T13:00:41;94942.16;;;4.47;92.21
11011;BME280;5558;42.702;23.178;2022-12-18T13:03:18;94942.75;;;4.42;92.78
11011;BME280;5558;42.702;23.178;2022-12-18T13:05:54;94942.69;;;4.23;92.87
11011;BME280;5558;42.702;23.178;2022-12-18T13:08:24;94946.41;;;4.41;94.04
11011;BME280;5558;42.702;23.178;2022-12-18T13:10:53;94939.75;;;4.45;93.08
11011;BME280;5558;42.702;23.178;2022-12-18T13:13:52;94950.59;;;4.36;93.57
11011;BME280;5558;42.702;23.178;2022-12-18T13:16:22;94962.44;;;4.25;92.41
11011;BME280;5558;42.702;23.178;2022-12-18T13:18:49;94939.31;;;4.42;93.40
11011;BME280;5558;42.702;23.178;2022-12-18T13:21:21;94957.16;;;4.66;92.08
11011;BME280;5558;42.702;23.178;2022-12-18T13:23:50;94968.09;;;4.69;91.57
11011;BME280;5558;42.702;23.178;2022-12-18T13:26:31;94960.66;;;4.79;91.44
11011;BME280;5558;42.702;23.178;2022-12-18T13:29:00;94957.00;;;4.80;89.87